BBX56 EHKD-EHJA
Flight info
| Callsign | BBX56 |
|---|---|
| Flight time | N/A |
| Altitude | 4000 |
| Route | GIKOV3L GOLOR TOPPA ROKAN EKDAR |
| Aircraft | A139/L-SDG/S |
Departure
| Time | 2026-05-04 12:33 |
|---|---|
| Airport | De Kooy Airfield / Den Helder Naval Air Station (EHKD) |
Arrival
| Time | N/A |
|---|---|
| Airport | J6-A Heliport (EHJA) |
| Time | Latitude | Longitude | Altitude | Speed | Heading |
|---|---|---|---|---|---|
| 2026-05-04 12:15 | 53.58413 | 3.41274 | 3016 ft | 136 kts | 116° |
| 2026-05-04 12:15 | 53.57924 | 3.42650 | 3019 ft | 136 kts | 116° |
| 2026-05-04 12:15 | 53.57437 | 3.44022 | 3020 ft | 136 kts | 116° |
| 2026-05-04 12:15 | 53.56956 | 3.45375 | 3020 ft | 136 kts | 116° |
| 2026-05-04 12:16 | 53.56463 | 3.46763 | 3018 ft | 136 kts | 116° |
| 2026-05-04 12:16 | 53.55977 | 3.48129 | 3018 ft | 136 kts | 116° |
| 2026-05-04 12:16 | 53.55492 | 3.49488 | 3017 ft | 136 kts | 116° |
| 2026-05-04 12:16 | 53.55007 | 3.50852 | 3012 ft | 136 kts | 116° |
| 2026-05-04 12:17 | 53.54516 | 3.52232 | 3016 ft | 136 kts | 116° |
| 2026-05-04 12:17 | 53.54027 | 3.53601 | 3015 ft | 136 kts | 116° |
| 2026-05-04 12:17 | 53.53537 | 3.54974 | 3014 ft | 136 kts | 116° |
| 2026-05-04 12:17 | 53.53052 | 3.56329 | 3014 ft | 136 kts | 116° |
| 2026-05-04 12:18 | 53.52565 | 3.57697 | 3013 ft | 136 kts | 116° |
| 2026-05-04 12:18 | 53.52076 | 3.59067 | 3010 ft | 136 kts | 116° |
| 2026-05-04 12:18 | 53.51590 | 3.60428 | 3010 ft | 136 kts | 116° |
| 2026-05-04 12:18 | 53.51109 | 3.61779 | 3008 ft | 136 kts | 116° |
| 2026-05-04 12:19 | 53.50623 | 3.63132 | 3009 ft | 136 kts | 116° |
| 2026-05-04 12:19 | 53.50108 | 3.64497 | 2980 ft | 139 kts | 125° |
| 2026-05-04 12:19 | 53.49414 | 3.65603 | 3020 ft | 138 kts | 134° |
| 2026-05-04 12:19 | 53.48701 | 3.66689 | 3014 ft | 138 kts | 134° |
| 2026-05-04 12:20 | 53.47982 | 3.67779 | 3013 ft | 138 kts | 134° |
| 2026-05-04 12:20 | 53.47269 | 3.68857 | 3014 ft | 139 kts | 134° |
| 2026-05-04 12:20 | 53.46550 | 3.69941 | 3017 ft | 138 kts | 134° |
| 2026-05-04 12:20 | 53.45835 | 3.71018 | 3013 ft | 138 kts | 134° |
| 2026-05-04 12:21 | 53.45128 | 3.72085 | 3011 ft | 138 kts | 134° |
| 2026-05-04 12:21 | 53.44411 | 3.73165 | 3009 ft | 137 kts | 134° |
| 2026-05-04 12:21 | 53.43694 | 3.74244 | 3010 ft | 137 kts | 134° |
| 2026-05-04 12:21 | 53.42988 | 3.75306 | 3009 ft | 137 kts | 134° |
| 2026-05-04 12:22 | 53.42279 | 3.76371 | 3010 ft | 137 kts | 134° |
| 2026-05-04 12:22 | 53.41574 | 3.77427 | 3007 ft | 137 kts | 134° |
| 2026-05-04 12:22 | 53.40866 | 3.78489 | 3006 ft | 137 kts | 134° |
| 2026-05-04 12:22 | 53.40145 | 3.79571 | 3009 ft | 137 kts | 134° |
| 2026-05-04 12:23 | 53.39442 | 3.80625 | 3010 ft | 137 kts | 134° |
| 2026-05-04 12:23 | 53.38717 | 3.81710 | 3012 ft | 137 kts | 134° |
| 2026-05-04 12:23 | 53.38000 | 3.82786 | 3008 ft | 138 kts | 134° |
| 2026-05-04 12:23 | 53.37284 | 3.83858 | 3009 ft | 138 kts | 134° |
| 2026-05-04 12:24 | 53.36561 | 3.84938 | 3010 ft | 139 kts | 134° |
| 2026-05-04 12:24 | 53.35841 | 3.86016 | 3017 ft | 138 kts | 134° |
| 2026-05-04 12:24 | 53.35120 | 3.87091 | 3017 ft | 137 kts | 134° |
| 2026-05-04 12:24 | 53.34415 | 3.88144 | 3017 ft | 136 kts | 134° |
| 2026-05-04 12:25 | 53.33700 | 3.89210 | 3013 ft | 136 kts | 134° |
| 2026-05-04 12:25 | 53.32999 | 3.90257 | 3003 ft | 136 kts | 134° |
| 2026-05-04 12:25 | 53.32288 | 3.91318 | 3000 ft | 136 kts | 134° |
| 2026-05-04 12:25 | 53.31579 | 3.92374 | 3001 ft | 137 kts | 134° |
| 2026-05-04 12:26 | 53.30870 | 3.93430 | 3008 ft | 137 kts | 134° |
| 2026-05-04 12:26 | 53.30165 | 3.94482 | 3008 ft | 137 kts | 134° |
| 2026-05-04 12:26 | 53.29448 | 3.95550 | 3006 ft | 137 kts | 134° |
| 2026-05-04 12:26 | 53.28730 | 3.96619 | 3006 ft | 138 kts | 134° |
| 2026-05-04 12:27 | 53.28018 | 3.97678 | 3004 ft | 138 kts | 134° |
| 2026-05-04 12:27 | 53.27313 | 3.98726 | 3015 ft | 138 kts | 134° |
| 2026-05-04 12:27 | 53.26598 | 3.99786 | 3018 ft | 137 kts | 134° |
| 2026-05-04 12:27 | 53.25894 | 4.00833 | 3018 ft | 136 kts | 134° |
| 2026-05-04 12:28 | 53.25183 | 4.01887 | 3014 ft | 136 kts | 134° |
| 2026-05-04 12:28 | 53.24473 | 4.02940 | 3006 ft | 136 kts | 134° |
| 2026-05-04 12:28 | 53.23770 | 4.03985 | 3003 ft | 136 kts | 134° |
| 2026-05-04 12:28 | 53.23063 | 4.05033 | 3003 ft | 136 kts | 134° |
| 2026-05-04 12:29 | 53.22360 | 4.06075 | 3008 ft | 136 kts | 134° |
| 2026-05-04 12:29 | 53.21643 | 4.07135 | 3005 ft | 136 kts | 134° |
| 2026-05-04 12:29 | 53.20938 | 4.08179 | 3006 ft | 137 kts | 134° |
| 2026-05-04 12:29 | 53.20220 | 4.09239 | 3007 ft | 137 kts | 134° |
| 2026-05-04 12:30 | 53.19515 | 4.10284 | 3010 ft | 137 kts | 134° |
| 2026-05-04 12:30 | 53.18787 | 4.11363 | 3010 ft | 138 kts | 134° |
| 2026-05-04 12:30 | 53.18080 | 4.12409 | 3012 ft | 138 kts | 134° |
| 2026-05-04 12:30 | 53.17359 | 4.13476 | 3009 ft | 138 kts | 134° |
| 2026-05-04 12:31 | 53.16640 | 4.14539 | 3008 ft | 138 kts | 134° |
| 2026-05-04 12:31 | 53.15925 | 4.15594 | 3014 ft | 137 kts | 134° |
| 2026-05-04 12:31 | 53.15202 | 4.16660 | 3015 ft | 137 kts | 134° |
| 2026-05-04 12:31 | 53.14497 | 4.17699 | 3013 ft | 136 kts | 134° |
| 2026-05-04 12:32 | 53.13786 | 4.18747 | 3010 ft | 136 kts | 134° |
| 2026-05-04 12:32 | 53.12361 | 4.20846 | 3005 ft | 136 kts | 134° |
| 2026-05-04 12:32 | 53.11657 | 4.21881 | 3004 ft | 136 kts | 134° |
| 2026-05-04 12:33 | 53.10947 | 4.22925 | 3003 ft | 136 kts | 134° |
| 2026-05-04 12:33 | 53.10231 | 4.23979 | 3003 ft | 136 kts | 134° |
| 2026-05-04 12:33 | 53.09522 | 4.25022 | 3002 ft | 137 kts | 134° |
| 2026-05-04 12:33 | 53.08809 | 4.26070 | 3001 ft | 137 kts | 134° |
| 2026-05-04 12:34 | 53.08092 | 4.27123 | 3002 ft | 138 kts | 134° |
| 2026-05-04 12:34 | 53.07370 | 4.28181 | 3010 ft | 137 kts | 134° |
| 2026-05-04 12:34 | 53.06652 | 4.29232 | 3009 ft | 137 kts | 134° |
| 2026-05-04 12:34 | 53.05937 | 4.30281 | 3011 ft | 136 kts | 134° |
| 2026-05-04 12:35 | 53.05231 | 4.31316 | 3007 ft | 136 kts | 134° |
| 2026-05-04 12:35 | 53.04527 | 4.32347 | 2999 ft | 136 kts | 134° |
| 2026-05-04 12:35 | 53.03816 | 4.33391 | 2997 ft | 136 kts | 134° |
| 2026-05-04 12:35 | 53.03106 | 4.34430 | 2997 ft | 136 kts | 134° |
| 2026-05-04 12:36 | 53.02348 | 4.35389 | 2996 ft | 136 kts | 141° |
| 2026-05-04 12:36 | 53.01567 | 4.36259 | 2997 ft | 136 kts | 142° |
| 2026-05-04 12:36 | 53.00771 | 4.37141 | 2994 ft | 137 kts | 142° |
| 2026-05-04 12:36 | 52.99975 | 4.38021 | 2995 ft | 137 kts | 142° |
| 2026-05-04 12:37 | 52.99184 | 4.38895 | 2999 ft | 138 kts | 142° |
| 2026-05-04 12:37 | 52.98384 | 4.39777 | 3003 ft | 138 kts | 142° |
| 2026-05-04 12:37 | 52.97583 | 4.40660 | 3005 ft | 138 kts | 142° |
| 2026-05-04 12:37 | 52.96790 | 4.41534 | 3003 ft | 138 kts | 142° |
| 2026-05-04 12:38 | 52.96000 | 4.42403 | 3002 ft | 138 kts | 142° |
| 2026-05-04 12:38 | 52.95202 | 4.43281 | 3005 ft | 138 kts | 142° |
| 2026-05-04 12:38 | 52.94399 | 4.44164 | 3004 ft | 137 kts | 142° |
| 2026-05-04 12:38 | 52.93605 | 4.45037 | 3003 ft | 137 kts | 142° |
| 2026-05-04 12:39 | 52.92813 | 4.45906 | 3001 ft | 136 kts | 142° |
| 2026-05-04 12:39 | 52.92017 | 4.46779 | 2991 ft | 137 kts | 142° |
| 2026-05-04 12:39 | 52.91225 | 4.47651 | 2987 ft | 137 kts | 142° |
| 2026-05-04 12:39 | 52.90434 | 4.48518 | 2982 ft | 137 kts | 142° |
| 2026-05-04 12:40 | 52.89630 | 4.49399 | 2986 ft | 138 kts | 142° |
| 2026-05-04 12:40 | 52.88833 | 4.50277 | 2988 ft | 138 kts | 142° |
| 2026-05-04 12:40 | 52.88043 | 4.51146 | 2990 ft | 138 kts | 142° |
| 2026-05-04 12:40 | 52.87241 | 4.52027 | 2988 ft | 138 kts | 142° |
| 2026-05-04 12:41 | 52.86436 | 4.52908 | 2981 ft | 138 kts | 142° |
| 2026-05-04 12:41 | 52.85640 | 4.53779 | 2980 ft | 138 kts | 142° |
| 2026-05-04 12:41 | 52.84833 | 4.54659 | 2889 ft | 137 kts | 141° |
| 2026-05-04 12:41 | 52.84042 | 4.55528 | 2756 ft | 137 kts | 140° |
| 2026-05-04 12:42 | 52.83242 | 4.56407 | 2613 ft | 137 kts | 140° |
| 2026-05-04 12:42 | 52.82451 | 4.57274 | 2477 ft | 137 kts | 140° |
| 2026-05-04 12:42 | 52.81654 | 4.58145 | 2363 ft | 135 kts | 139° |
| 2026-05-04 12:42 | 52.80890 | 4.58978 | 2266 ft | 130 kts | 139° |
| 2026-05-04 12:43 | 52.80154 | 4.59790 | 2145 ft | 126 kts | 140° |
| 2026-05-04 12:43 | 52.79422 | 4.60593 | 1992 ft | 126 kts | 143° |
| 2026-05-04 12:43 | 52.78693 | 4.61376 | 1995 ft | 121 kts | 143° |
| 2026-05-04 12:43 | 52.78016 | 4.62110 | 2048 ft | 111 kts | 143° |
| 2026-05-04 12:44 | 52.77391 | 4.62789 | 2017 ft | 105 kts | 143° |
| 2026-05-04 12:44 | 52.76788 | 4.63442 | 1970 ft | 104 kts | 143° |
| 2026-05-04 12:44 | 52.76207 | 4.64155 | 1950 ft | 103 kts | 124° |
| 2026-05-04 12:44 | 52.76037 | 4.65191 | 2005 ft | 90 kts | 78° |
| 2026-05-04 12:45 | 52.76169 | 4.66187 | 1996 ft | 87 kts | 75° |
| 2026-05-04 12:45 | 52.76318 | 4.67156 | 1977 ft | 87 kts | 73° |
| 2026-05-04 12:45 | 52.76481 | 4.68122 | 1967 ft | 87 kts | 72° |
| 2026-05-04 12:45 | 52.76651 | 4.69076 | 1972 ft | 87 kts | 71° |
| 2026-05-04 12:46 | 52.76829 | 4.70041 | 1976 ft | 87 kts | 70° |
| 2026-05-04 12:46 | 52.77009 | 4.70992 | 1980 ft | 87 kts | 70° |
| 2026-05-04 12:46 | 52.77239 | 4.71917 | 1970 ft | 86 kts | 48° |
| 2026-05-04 12:46 | 52.77760 | 4.72367 | 1976 ft | 86 kts | 17° |
| 2026-05-04 12:47 | 52.78341 | 4.72606 | 1981 ft | 87 kts | 16° |
| 2026-05-04 12:47 | 52.78935 | 4.72834 | 1985 ft | 87 kts | 15° |
| 2026-05-04 12:47 | 52.79532 | 4.73039 | 1977 ft | 86 kts | 14° |
| 2026-05-04 12:47 | 52.80101 | 4.73234 | 1996 ft | 81 kts | 13° |
| 2026-05-04 12:48 | 52.80646 | 4.73417 | 2009 ft | 76 kts | 13° |
| 2026-05-04 12:48 | 52.81165 | 4.73591 | 1988 ft | 76 kts | 13° |
| 2026-05-04 12:48 | 52.81691 | 4.73764 | 1976 ft | 76 kts | 13° |
| 2026-05-04 12:48 | 52.82212 | 4.73931 | 1962 ft | 76 kts | 13° |
| 2026-05-04 12:49 | 52.82727 | 4.74093 | 1863 ft | 76 kts | 13° |
| 2026-05-04 12:49 | 52.83248 | 4.74257 | 1759 ft | 76 kts | 13° |
| 2026-05-04 12:49 | 52.83766 | 4.74418 | 1661 ft | 75 kts | 13° |
| 2026-05-04 12:49 | 52.84286 | 4.74580 | 1555 ft | 75 kts | 13° |
| 2026-05-04 12:50 | 52.84810 | 4.74744 | 1455 ft | 75 kts | 13° |
| 2026-05-04 12:50 | 52.85321 | 4.74902 | 1354 ft | 75 kts | 13° |
| 2026-05-04 12:50 | 52.85835 | 4.75060 | 1254 ft | 75 kts | 14° |
| 2026-05-04 12:50 | 52.86352 | 4.75221 | 1157 ft | 75 kts | 14° |
| 2026-05-04 12:51 | 52.86872 | 4.75384 | 1051 ft | 75 kts | 14° |
| 2026-05-04 12:51 | 52.87384 | 4.75543 | 950 ft | 75 kts | 14° |
| 2026-05-04 12:51 | 52.87895 | 4.75702 | 857 ft | 74 kts | 14° |
| 2026-05-04 12:51 | 52.88407 | 4.75860 | 754 ft | 75 kts | 14° |
| 2026-05-04 12:52 | 52.88914 | 4.76019 | 655 ft | 74 kts | 14° |
| 2026-05-04 12:52 | 52.89428 | 4.76179 | 564 ft | 73 kts | 14° |
| 2026-05-04 12:52 | 52.89928 | 4.76346 | 463 ft | 72 kts | 11° |
| 2026-05-04 12:52 | 52.90426 | 4.76491 | 373 ft | 72 kts | 17° |
| 2026-05-04 12:53 | 52.90929 | 4.76646 | 275 ft | 72 kts | 13° |
| 2026-05-04 12:53 | 52.91393 | 4.76940 | 219 ft | 71 kts | 43° |
| 2026-05-04 12:53 | 52.91783 | 4.77420 | 116 ft | 68 kts | 32° |
| 2026-05-04 12:53 | 52.92124 | 4.77821 | 36 ft | 48 kts | 34° |
| 2026-05-04 12:54 | 52.92337 | 4.78049 | 15 ft | 23 kts | 35° |
| 2026-05-04 12:54 | 52.92383 | 4.78101 | 1 ft | 0 kts | 79° |
| 2026-05-04 12:54 | 52.92386 | 4.78131 | 1 ft | 4 kts | 93° |
| 2026-05-04 12:54 | 52.92373 | 4.78174 | 1 ft | 3 kts | 126° |
| 2026-05-04 12:55 | 52.92357 | 4.78209 | 1 ft | 4 kts | 145° |
| 2026-05-04 12:55 | 52.92330 | 4.78199 | 2 ft | 0 kts | 216° |
| 2026-05-04 12:55 | 52.92304 | 4.78170 | 1 ft | 3 kts | 214° |
| 2026-05-04 12:55 | 52.92267 | 4.78129 | 2 ft | 12 kts | 215° |
| 2026-05-04 12:56 | 52.92200 | 4.78054 | 1 ft | 12 kts | 215° |
| 2026-05-04 12:56 | 52.92142 | 4.77988 | 2 ft | 8 kts | 213° |
| 2026-05-04 12:56 | 52.92079 | 4.77920 | 2 ft | 11 kts | 214° |
| 2026-05-04 12:56 | 52.92017 | 4.77850 | 1 ft | 10 kts | 215° |
| 2026-05-04 12:57 | 52.91971 | 4.77820 | 2 ft | 7 kts | 160° |
| 2026-05-04 12:57 | 52.91949 | 4.77875 | 2 ft | 0 kts | 72° |
| 2026-05-04 12:57 | 52.91958 | 4.77906 | 2 ft | 4 kts | 76° |
| 2026-05-04 12:57 | 52.91971 | 4.77933 | 1 ft | 0 kts | 27° |